This is the latest recevied weather packets stored in our database for station/object KF5VOI. If no packets are shown the sender has not sent any weather packets the latest 10 day(s).
| Time | Temp. | Humidity | Pressure | Rain* | Wind** | Luminosity | Snow |
|---|---|---|---|---|---|---|---|
| 1777582514 | 25.56° C | 95% | 1011.6 hPa | 0 mm | - | - | - |
| 1777580714 | 25.56° C | 95% | 1011.6 hPa | 0 mm | - | - | - |
| 1777578914 | 25.56° C | 94% | 1012.4 hPa | 0 mm | - | - | - |
| 1777577114 | 26.11° C | 92% | 1012.5 hPa | 0 mm | - | - | - |
| 1777575314 | 26.11° C | 95% | 1012.9 hPa | 0 mm | - | - | - |
| 1777573514 | 24.44° C | 99% | 1013.4 hPa | 0.25 mm | - | - | - |
| 1777571714 | 22.22° C | 99% | 1013.6 hPa | 3.3 mm | - | - | - |
| 1777569914 | 22.22° C | 99% | 1013.6 hPa | 3.81 mm | - | - | - |
| 1777568114 | 22.22° C | 99% | 1014.5 hPa | 1.52 mm | - | - | - |
| 1777566314 | 22.78° C | 99% | 1014.5 hPa | 0.25 mm | - | - | - |
| 1777564514 | 23.89° C | 99% | 1014.3 hPa | 0 mm | - | - | - |
| 1777562714 | 23.89° C | 99% | 1014.2 hPa | 0 mm | - | - | - |
| 1777560914 | 25° C | 98% | 1013.8 hPa | 0 mm | - | - | - |
| 1777559114 | 25.56° C | 97% | 1013.7 hPa | 0 mm | - | - | - |
| 1777557314 | 25.56° C | 98% | 1013.3 hPa | 0 mm | - | - | - |
| 1777555514 | 24.44° C | 99% | 1013.4 hPa | 0 mm | - | - | - |
| 1777553714 | 24.44° C | 99% | 1013.1 hPa | 0 mm | - | - | - |
| 1777551914 | 23.89° C | 99% | 1012.7 hPa | 0 mm | - | - | - |
| 1777550114 | 23.33° C | 99% | 1012.3 hPa | 0 mm | - | - | - |
| 1777548315 | 22.78° C | 99% | 1012 hPa | 0 mm | - | - | - |
| 1777548314 | 22.78° C | 99% | 1012 hPa | 0 mm | - | - | - |
| 1777546514 | 22.78° C | 99% | 1011.5 hPa | 0 mm | - | - | - |
| 1777544714 | 22.22° C | 99% | 1011.2 hPa | 0 mm | - | - | - |
| 1777542914 | 21.67° C | 99% | 1011.4 hPa | 0 mm | - | - | - |
| 1777541114 | 21.67° C | 99% | 1012 hPa | 0 mm | - | - | - |
* Rain latest hour (hover to see other rain measurements)
** Current wind speed in m/s (hover to see current wind gust speed)